Terminal Aerodrome Forecast
Issued by NWS Quad Cities IA IL

Home | Current Version | Previous Version | Graphics & Text | Print | Product List | Glossary On
Versions: 1 2 3 4 5 6 7 8 9 10 11 12 13 14 15 16
222
FTUS43 KDVN 252320
TAFMLI
TAF
KMLI 252320Z 2600/2624 36004KT P6SM SKC
     FM260900 VRB03KT 4SM BR SKC
     FM261500 10006KT P6SM SKC=

USA.gov is the U.S. government's official web portal to all federal, state and local government web resources and services.